Time;durP1;ratioP1;P1;durP2;ratioP2;P2;SDS_P1;SDS_P2;PMS_P1;PMS_P2;Temp;Humidity;BMP_temperature;BMP_pressure;BME280_temperature;BME280_humidity;BME280_pressure;Samples;Min_cycle;Max_cycle;Signal;HPM_P1;HPM_P2
2023/05/07 00:01:26;;;;;;;17.60;14.10;;;;;;;10.10;91.60;101276.31;107441;1257;71737;-68
2023/05/07 00:03:55;;;;;;;17.10;14.00;;;;;;;10.10;91.83;101281.85;107328;1257;61982;-67
2023/05/07 00:06:22;;;;;;;18.40;14.40;;;;;;;10.09;91.74;101283.17;107214;1255;60438;-68
2023/05/07 00:08:49;;;;;;;18.80;14.40;;;;;;;10.09;91.74;101287.05;107065;1254;73543;-67
2023/05/07 00:11:15;;;;;;;18.00;14.40;;;;;;;10.12;91.62;101285.20;106829;1259;70179;-69
2023/05/07 00:13:42;;;;;;;18.40;15.00;;;;;;;10.13;91.53;101282.22;107331;1255;71604;-68
2023/05/07 00:16:08;;;;;;;18.70;15.10;;;;;;;10.15;91.54;101283.30;107420;1256;63265;-67
2023/05/07 00:18:35;;;;;;;17.80;14.30;;;;;;;10.13;91.87;101279.59;107642;1255;60451;-69
2023/05/07 00:21:01;;;;;;;18.80;14.30;;;;;;;10.11;91.89;101280.50;107346;1256;74042;-66
2023/05/07 00:23:28;;;;;;;19.50;15.10;;;;;;;10.10;91.90;101283.83;107268;1256;58968;-67
2023/05/07 00:25:55;;;;;;;19.70;14.90;;;;;;;10.08;91.71;101285.38;107266;1256;62071;-68
2023/05/07 00:28:22;;;;;;;19.40;15.30;;;;;;;10.06;91.74;101283.33;107077;1256;61972;-69
2023/05/07 00:30:49;;;;;;;20.10;15.50;;;;;;;10.05;91.56;101276.59;107483;1257;60655;-68
2023/05/07 00:33:15;;;;;;;19.90;14.80;;;;;;;10.04;91.72;101275.03;107208;1255;73804;-66
2023/05/07 00:35:42;;;;;;;20.00;15.30;;;;;;;10.02;91.87;101271.17;107589;1256;69627;-68
2023/05/07 00:38:09;;;;;;;21.60;16.30;;;;;;;10.00;92.10;101265.20;107598;1256;72447;-68
2023/05/07 00:40:35;;;;;;;19.70;14.90;;;;;;;10.00;91.98;101258.97;107505;1255;60442;-67
2023/05/07 00:43:02;;;;;;;21.60;16.40;;;;;;;9.99;92.35;101257.58;107325;1256;60501;-67
2023/05/07 00:45:29;;;;;;;21.70;16.40;;;;;;;9.97;92.37;101255.04;107127;1256;73559;-68
2023/05/07 00:47:58;;;;;;;21.70;17.00;;;;;;;9.97;92.56;101259.45;107193;1256;71401;-67
2023/05/07 00:50:26;;;;;;;22.30;17.50;;;;;;;9.97;92.61;101260.58;107784;1256;72461;-67
2023/05/07 00:52:53;;;;;;;21.70;15.90;;;;;;;9.96;92.91;101260.27;107443;1256;60575;-68
2023/05/07 00:55:21;;;;;;;23.60;17.30;;;;;;;9.92;93.35;101258.92;107436;1255;60530;-68
2023/05/07 00:57:49;;;;;;;24.50;18.70;;;;;;;9.88;93.42;101259.50;107271;1257;72558;-66
2023/05/07 01:00:17;;;;;;;24.50;18.70;;;;;;;9.87;93.59;101257.14;107046;1256;69512;-67
2023/05/07 01:02:44;;;;;;;24.80;17.90;;;;;;;9.88;93.63;101256.70;107659;1256;73226;-68
2023/05/07 01:05:14;;;;;;;24.30;18.80;;;;;;;9.87;93.90;101254.59;107369;1256;60745;-69
2023/05/07 01:07:42;;;;;;;23.60;17.40;;;;;;;9.86;94.12;101255.38;107305;1256;59700;-68
2023/05/07 01:10:10;;;;;;;23.80;18.20;;;;;;;9.83;94.03;101257.57;108170;1257;74021;-69
2023/05/07 01:12:38;;;;;;;24.20;18.10;;;;;;;9.80;94.39;101257.30;107200;1256;70163;-68
2023/05/07 01:15:06;;;;;;;24.70;18.20;;;;;;;9.80;94.11;101260.17;108277;1257;72050;-69
2023/05/07 01:17:36;;;;;;;24.10;18.30;;;;;;;9.80;94.56;101259.11;108030;1254;60911;-68
2023/05/07 01:20:07;;;;;;;25.10;18.40;;;;;;;9.80;94.37;101257.10;107979;1254;59155;-69
2023/05/07 01:22:36;;;;;;;27.10;18.50;;;;;;;9.80;94.44;101265.97;107971;1254;74587;-68
2023/05/07 01:25:04;;;;;;;26.00;19.10;;;;;;;9.78;94.74;101263.84;108023;1254;70776;-70
2023/05/07 01:27:33;;;;;;;23.90;18.60;;;;;;;9.78;94.40;101265.63;107540;1254;72739;-67
2023/05/07 01:30:00;;;;;;;24.70;18.60;;;;;;;9.79;94.38;101266.98;107774;1256;61089;-68
2023/05/07 01:32:43;;;;;;;26.60;18.80;;;;;;;9.79;94.26;101268.88;107572;1255;59551;-69
2023/05/07 01:35:18;;;;;;;21.90;16.70;;;;;;;9.82;94.60;101271.67;107610;1256;73993;-68
2023/05/07 01:37:45;;;;;;;23.40;17.60;;;;;;;9.81;94.11;101271.17;107744;1256;69663;-68
2023/05/07 01:40:13;;;;;;;23.40;17.00;;;;;;;9.81;94.39;101268.02;108146;1256;72440;-68
2023/05/07 01:42:42;;;;;;;22.60;16.60;;;;;;;9.78;94.10;101265.23;107156;1257;61699;-69
2023/05/07 01:45:09;;;;;;;21.10;16.30;;;;;;;9.78;94.36;101263.54;107871;1256;60298;-67
2023/05/07 01:47:37;;;;;;;21.40;16.10;;;;;;;9.77;94.35;101266.31;107898;1257;73573;-68
2023/05/07 01:50:07;;;;;;;19.50;15.00;;;;;;;9.77;94.23;101268.89;107656;1254;69617;-69
2023/05/07 01:52:38;;;;;;;19.50;14.80;;;;;;;9.77;94.19;101267.66;107934;1256;71656;-67
2023/05/07 01:55:06;;;;;;;20.70;14.90;;;;;;;9.77;93.72;101267.36;107963;1256;61138;-70
2023/05/07 01:57:33;;;;;;;17.20;13.60;;;;;;;9.77;93.93;101263.13;107522;1254;60966;-68
2023/05/07 01:59:59;;;;;;;16.20;12.30;;;;;;;9.77;93.67;101260.81;108463;1258;72785;-69
2023/05/07 02:02:26;;;;;;;16.70;12.00;;;;;;;9.78;93.38;101261.75;108291;1257;70511;-68
2023/05/07 02:04:53;;;;;;;15.60;12.00;;;;;;;9.79;92.88;101260.38;107977;1255;72415;-68
2023/05/07 02:07:19;;;;;;;15.60;11.60;;;;;;;9.82;92.74;101257.66;108408;1254;58375;-68
2023/05/07 02:09:46;;;;;;;13.80;10.70;;;;;;;9.84;92.46;101255.86;108232;1254;59355;-69
2023/05/07 02:12:13;;;;;;;13.70;9.60;;;;;;;9.86;92.18;101258.39;108513;1254;74474;-68
2023/05/07 02:14:39;;;;;;;13.30;9.80;;;;;;;9.84;91.70;101260.36;107692;1256;70434;-68
2023/05/07 02:17:06;;;;;;;12.00;9.40;;;;;;;9.83;91.42;101265.16;107578;1255;72433;-68
2023/05/07 02:19:32;;;;;;;12.30;9.40;;;;;;;9.83;91.00;101258.33;107543;1259;60453;-68
2023/05/07 02:21:59;;;;;;;12.60;9.30;;;;;;;9.82;90.76;101256.95;107456;1257;59109;-68
2023/05/07 02:24:25;;;;;;;11.30;8.50;;;;;;;9.81;90.68;101259.71;107284;1255;60531;-67
2023/05/07 02:26:52;;;;;;;13.80;10.00;;;;;;;9.80;90.70;101267.40;107510;1254;69713;-65
2023/05/07 02:29:18;;;;;;;11.60;8.90;;;;;;;9.83;90.67;101270.36;107562;1256;71936;-69
2023/05/07 02:31:45;;;;;;;10.40;8.00;;;;;;;9.83;90.52;101274.15;107972;1256;58630;-68
2023/05/07 02:34:11;;;;;;;10.40;8.30;;;;;;;9.84;90.41;101274.08;108069;1255;60524;-68
2023/05/07 02:36:38;;;;;;;11.80;8.70;;;;;;;9.83;90.29;101277.88;107771;1256;60474;-69
2023/05/07 02:39:05;;;;;;;11.30;8.50;;;;;;;9.81;90.16;101279.69;107314;1254;59000;-68
2023/05/07 02:41:31;;;;;;;12.10;8.90;;;;;;;9.79;90.21;101281.27;107694;1257;72385;-67
2023/05/07 02:43:58;;;;;;;12.40;8.90;;;;;;;9.77;90.33;101287.08;107368;1255;60738;-67
2023/05/07 02:46:25;;;;;;;11.50;9.20;;;;;;;9.77;90.30;101288.33;108340;1258;60497;-67
2023/05/07 02:48:51;;;;;;;12.90;8.80;;;;;;;9.75;90.63;101289.42;108708;1255;73224;-67
2023/05/07 02:51:22;;;;;;;12.00;9.10;;;;;;;9.73;90.64;101287.89;107708;1259;69766;-67
2023/05/07 02:53:51;;;;;;;11.20;8.00;;;;;;;9.71;90.61;101285.61;108153;1256;72509;-68
2023/05/07 02:56:18;;;;;;;9.80;8.00;;;;;;;9.69;90.78;101284.77;107393;1254;61168;-67
2023/05/07 02:58:44;;;;;;;12.40;9.10;;;;;;;9.66;91.12;101281.67;107408;1255;61527;-68
2023/05/07 03:01:13;;;;;;;11.90;9.20;;;;;;;9.64;91.13;101276.09;107205;1257;72381;-68
2023/05/07 03:03:40;;;;;;;13.00;9.30;;;;;;;9.63;91.16;101274.63;107772;1257;70739;-69
2023/05/07 03:06:07;;;;;;;12.50;9.50;;;;;;;9.63;91.12;101275.16;107828;1256;71998;-68
2023/05/07 03:08:34;;;;;;;12.50;9.70;;;;;;;9.64;91.53;101278.23;107591;1257;61338;-68
2023/05/07 03:11:00;;;;;;;13.10;9.70;;;;;;;9.65;91.41;101278.29;107027;1260;59478;-68
2023/05/07 03:13:27;;;;;;;12.10;8.90;;;;;;;9.65;91.69;101276.14;107179;1257;74472;-68
2023/05/07 03:15:53;;;;;;;11.50;9.30;;;;;;;9.64;92.02;101274.36;107103;1257;60486;-68
2023/05/07 03:18:20;;;;;;;9.80;7.50;;;;;;;9.61;91.85;101269.52;107622;1257;72712;-69
2023/05/07 03:20:48;;;;;;;10.90;8.50;;;;;;;9.57;92.13;101272.23;107807;1256;60448;-68
2023/05/07 03:23:15;;;;;;;10.00;8.00;;;;;;;9.55;92.34;101272.61;108068;1257;59572;-68
2023/05/07 03:25:41;;;;;;;11.30;8.60;;;;;;;9.51;92.26;101275.23;107970;1254;73929;-68
2023/05/07 03:28:08;;;;;;;11.00;8.20;;;;;;;9.51;92.36;101283.61;107345;1256;69364;-68
2023/05/07 03:30:35;;;;;;;10.70;8.40;;;;;;;9.48;92.63;101280.87;107082;1258;60426;-67
2023/05/07 03:33:01;;;;;;;11.10;8.10;;;;;;;9.46;92.66;101280.92;107127;1257;61283;-69
2023/05/07 03:35:28;;;;;;;9.80;8.40;;;;;;;9.46;92.66;101273.02;107520;1257;60398;-68
2023/05/07 03:37:54;;;;;;;10.60;8.30;;;;;;;9.44;92.82;101270.34;107706;1258;72627;-68
2023/05/07 03:40:21;;;;;;;10.80;8.50;;;;;;;9.42;92.91;101274.20;107828;1259;69684;-68
2023/05/07 03:42:48;;;;;;;11.20;8.60;;;;;;;9.40;93.10;101266.27;107466;1257;71218;-68
2023/05/07 03:45:14;;;;;;;10.30;7.90;;;;;;;9.37;93.11;101263.73;107472;1256;60559;-67
2023/05/07 03:47:41;;;;;;;10.50;8.20;;;;;;;9.37;93.09;101259.89;107561;1257;60420;-67
2023/05/07 03:50:08;;;;;;;9.90;7.90;;;;;;;9.37;93.25;101265.70;107369;1257;72751;-67
2023/05/07 03:52:35;;;;;;;9.80;7.70;;;;;;;9.38;93.23;101261.73;107481;1257;69921;-69
2023/05/07 03:55:02;;;;;;;9.70;7.40;;;;;;;9.39;92.90;101264.48;107489;1257;71517;-69
2023/05/07 03:57:29;;;;;;;10.00;7.90;;;;;;;9.40;92.69;101268.09;107703;1257;60373;-68
2023/05/07 03:59:55;;;;;;;10.00;7.60;;;;;;;9.42;92.70;101259.48;107505;1257;59471;-69
2023/05/07 04:02:22;;;;;;;10.20;7.90;;;;;;;9.44;92.50;101263.45;107200;1259;73941;-68
2023/05/07 04:04:49;;;;;;;10.70;7.90;;;;;;;9.45;92.10;101266.23;106927;1259;70515;-67
2023/05/07 04:07:17;;;;;;;9.80;7.40;;;;;;;9.44;92.12;101272.64;107354;1256;71522;-67
2023/05/07 04:09:43;;;;;;;9.20;7.40;;;;;;;9.43;92.14;101278.41;107371;1256;60908;-67
2023/05/07 04:12:10;;;;;;;10.50;8.70;;;;;;;9.42;91.90;101276.59;107701;1256;59072;-68
2023/05/07 04:14:36;;;;;;;11.10;8.80;;;;;;;9.43;92.09;101278.21;107424;1259;60332;-68
2023/05/07 04:17:03;;;;;;;9.90;8.00;;;;;;;9.45;91.83;101280.64;107512;1260;60364;-68
2023/05/07 04:19:30;;;;;;;10.90;8.40;;;;;;;9.45;91.97;101284.59;107020;1257;59708;-67
2023/05/07 04:21:56;;;;;;;9.70;8.20;;;;;;;9.47;91.84;101291.59;107241;1256;60434;-68
2023/05/07 04:24:23;;;;;;;11.10;8.10;;;;;;;9.48;91.89;101296.73;107789;1256;61771;-67
2023/05/07 04:26:51;;;;;;;11.30;8.60;;;;;;;9.47;92.08;101298.33;107380;1257;73861;-68
2023/05/07 04:29:17;;;;;;;11.40;8.30;;;;;;;9.47;91.62;101298.11;107461;1260;70787;-69
2023/05/07 04:31:44;;;;;;;10.30;8.30;;;;;;;9.47;91.70;101297.04;107735;1258;71537;-67
2023/05/07 04:34:11;;;;;;;10.90;8.40;;;;;;;9.50;91.42;101301.02;107342;1259;60529;-67
2023/05/07 04:36:38;;;;;;;10.60;8.30;;;;;;;9.51;90.81;101299.66;107420;1257;60516;-67
2023/05/07 04:39:06;;;;;;;10.30;8.30;;;;;;;9.51;90.72;101301.71;107494;1257;71646;-68
2023/05/07 04:41:33;;;;;;;10.20;8.40;;;;;;;9.53;90.53;101306.73;108000;1256;69717;-69
2023/05/07 04:43:59;;;;;;;11.00;8.50;;;;;;;9.53;90.33;101308.59;107666;1257;72384;-67
2023/05/07 04:46:26;;;;;;;10.40;8.10;;;;;;;9.55;90.25;101310.35;108032;1256;60329;-67
2023/05/07 04:48:53;;;;;;;9.10;7.20;;;;;;;9.55;90.10;101310.77;107425;1257;58960;-69
2023/05/07 04:51:20;;;;;;;9.20;7.50;;;;;;;9.55;89.95;101314.80;107524;1257;72608;-70
2023/05/07 04:56:29;;;;;;;10.70;7.60;;;;;;;9.58;90.12;101318.59;108238;1251;192396;-66
2023/05/07 04:58:56;;;;;;;9.30;7.40;;;;;;;9.60;89.48;101320.17;107849;1259;60859;-69
2023/05/07 05:01:23;;;;;;;9.10;7.00;;;;;;;9.63;89.02;101326.91;105658;1250;183658;-73
2023/05/07 05:03:50;;;;;;;9.50;7.50;;;;;;;9.65;88.71;101333.73;108174;1256;75769;-75
2023/05/07 05:06:17;;;;;;;9.30;7.60;;;;;;;9.68;88.57;101337.18;107518;1257;70048;-73
2023/05/07 05:08:44;;;;;;;9.10;7.00;;;;;;;9.70;88.03;101342.11;107419;1256;71163;-74
2023/05/07 05:11:11;;;;;;;8.60;6.70;;;;;;;9.72;87.75;101341.49;106554;1261;61928;-74
2023/05/07 05:13:38;;;;;;;9.60;7.10;;;;;;;9.74;87.67;101347.51;106706;1256;60439;-74
2023/05/07 05:16:05;;;;;;;9.60;7.30;;;;;;;9.74;87.16;101344.98;107441;1261;72706;-74
2023/05/07 05:18:32;;;;;;;9.30;7.10;;;;;;;9.76;87.20;101340.73;107923;1256;70024;-75
2023/05/07 05:21:00;;;;;;;8.80;7.10;;;;;;;9.80;87.04;101342.70;107764;1256;71583;-75
2023/05/07 05:23:26;;;;;;;8.50;7.40;;;;;;;9.84;86.81;101343.13;107555;1256;60444;-75
2023/05/07 05:25:57;;;;;;;8.80;7.40;;;;;;;9.89;86.16;101343.52;107467;1256;62081;-73
2023/05/07 05:28:24;;;;;;;8.20;7.30;;;;;;;9.96;85.66;101346.93;107661;1256;72677;-74
2023/05/07 05:30:51;;;;;;;9.60;7.50;;;;;;;10.01;85.23;101347.09;107615;1257;69895;-75
2023/05/07 05:33:18;;;;;;;9.10;7.20;;;;;;;10.05;84.53;101342.43;107343;1256;71110;-73
2023/05/07 05:35:45;;;;;;;9.30;7.30;;;;;;;10.10;84.51;101339.25;107887;1257;60693;-75
2023/05/07 05:38:12;;;;;;;7.70;6.80;;;;;;;10.20;84.47;101335.30;107138;1258;60594;-74
2023/05/07 05:40:39;;;;;;;7.70;6.30;;;;;;;10.28;84.09;101337.80;107660;1261;73200;-76
2023/05/07 05:43:07;;;;;;;7.90;6.70;;;;;;;10.33;83.33;101341.44;107192;1256;71173;-74
2023/05/07 05:45:33;;;;;;;7.70;6.10;;;;;;;10.37;83.13;101345.20;107680;1259;70862;-75
2023/05/07 05:48:00;;;;;;;8.00;6.60;;;;;;;10.45;82.98;101343.85;108916;1256;61692;-75
2023/05/07 05:50:27;;;;;;;7.90;6.60;;;;;;;10.50;82.53;101337.24;107767;1256;60548;-75
2023/05/07 05:52:54;;;;;;;7.40;6.50;;;;;;;10.55;82.22;101341.55;108664;1256;72910;-73
2023/05/07 05:55:22;;;;;;;7.80;6.10;;;;;;;10.58;81.50;101341.23;107316;1256;72279;-74
2023/05/07 05:57:49;;;;;;;7.50;5.80;;;;;;;10.61;81.37;101339.89;107296;1261;71948;-76
2023/05/07 06:00:17;;;;;;;7.90;6.30;;;;;;;10.67;81.12;101349.45;107260;1257;61150;-76
2023/05/07 06:02:43;;;;;;;7.00;6.10;;;;;;;10.75;81.07;101354.76;107771;1257;58951;-75
2023/05/07 06:05:12;;;;;;;6.70;6.00;;;;;;;10.83;80.26;101360.10;107726;1257;72376;-74
2023/05/07 06:07:39;;;;;;;8.80;6.40;;;;;;;10.85;79.99;101362.01;107001;1259;70175;-75
2023/05/07 06:10:07;;;;;;;8.40;6.60;;;;;;;10.87;79.83;101365.90;107530;1261;71485;-74
2023/05/07 06:12:34;;;;;;;7.70;6.10;;;;;;;10.90;80.16;101364.52;107517;1257;62199;-74
2023/05/07 06:15:01;;;;;;;6.80;5.80;;;;;;;10.91;80.17;101359.34;107995;1259;61299;-74
2023/05/07 06:17:28;;;;;;;7.30;6.10;;;;;;;10.86;79.65;101357.30;107474;1259;72893;-73
2023/05/07 06:19:55;;;;;;;6.90;6.20;;;;;;;10.87;79.69;101351.57;107249;1257;70900;-73
2023/05/07 06:22:22;;;;;;;7.20;6.30;;;;;;;10.92;79.83;101353.00;107500;1257;72708;-75
2023/05/07 06:24:49;;;;;;;7.70;6.90;;;;;;;11.00;79.88;101356.73;107717;1258;60797;-74
2023/05/07 06:27:16;;;;;;;7.80;6.80;;;;;;;11.06;79.71;101357.79;107312;1259;60480;-74
2023/05/07 06:29:43;;;;;;;8.30;6.70;;;;;;;11.12;79.83;101358.86;106958;1259;72866;-74
2023/05/07 06:32:11;;;;;;;6.80;6.10;;;;;;;11.15;79.60;101363.27;106879;1258;71200;-74
2023/05/07 06:34:38;;;;;;;7.10;6.30;;;;;;;11.18;79.08;101363.16;107462;1260;72709;-74
2023/05/07 06:37:06;;;;;;;7.60;6.70;;;;;;;11.22;78.92;101362.02;107409;1259;61072;-72
2023/05/07 06:39:33;;;;;;;7.50;6.70;;;;;;;11.24;78.62;101364.27;107402;1257;59467;-72
2023/05/07 06:42:01;;;;;;;7.40;6.50;;;;;;;11.29;78.48;101364.71;106955;1257;71930;-73
2023/05/07 06:44:28;;;;;;;8.20;7.40;;;;;;;11.28;78.12;101359.80;107642;1257;69985;-74
2023/05/07 06:46:55;;;;;;;8.10;7.30;;;;;;;11.34;78.24;101358.45;107486;1258;71957;-73
2023/05/07 06:49:22;;;;;;;8.90;8.00;;;;;;;11.40;77.76;101354.05;107898;1261;60884;-73
2023/05/07 06:51:49;;;;;;;8.60;7.70;;;;;;;11.46;77.90;101359.85;107068;1257;60635;-73
2023/05/07 06:54:16;;;;;;;9.50;8.60;;;;;;;11.49;77.89;101358.64;107328;1260;73284;-73
2023/05/07 06:56:43;;;;;;;9.70;8.20;;;;;;;11.53;77.56;101365.68;107701;1257;71027;-74
2023/05/07 06:59:09;;;;;;;9.50;8.60;;;;;;;11.52;77.25;101367.41;107031;1258;72386;-73
2023/05/07 07:01:37;;;;;;;9.50;8.40;;;;;;;11.46;76.95;101370.27;106932;1258;60817;-72
2023/05/07 07:04:04;;;;;;;9.70;8.70;;;;;;;11.38;76.97;101372.17;107277;1257;60962;-74
2023/05/07 07:06:31;;;;;;;9.50;8.40;;;;;;;11.35;76.90;101379.73;107777;1260;72135;-73
2023/05/07 07:08:59;;;;;;;8.70;7.90;;;;;;;11.35;76.80;101376.21;107552;1258;71984;-72
2023/05/07 07:11:26;;;;;;;9.60;8.40;;;;;;;11.39;76.97;101374.60;107249;1261;71291;-73
2023/05/07 07:13:54;;;;;;;9.50;8.10;;;;;;;11.45;76.73;101373.97;107581;1257;61560;-72
2023/05/07 07:16:22;;;;;;;8.80;7.90;;;;;;;11.52;77.05;101378.20;107472;1258;60225;-74
2023/05/07 07:18:49;;;;;;;8.40;7.50;;;;;;;11.52;76.57;101380.76;107116;1262;74283;-73
2023/05/07 07:21:16;;;;;;;9.40;8.30;;;;;;;11.53;76.59;101383.02;107641;1257;70761;-75
2023/05/07 07:23:43;;;;;;;9.30;8.40;;;;;;;11.58;76.88;101385.25;107070;1261;70685;-73
2023/05/07 07:26:10;;;;;;;8.20;7.40;;;;;;;11.64;76.18;101386.95;108119;1257;61736;-74
2023/05/07 07:28:42;;;;;;;9.70;7.90;;;;;;;11.70;75.78;101385.42;107930;1257;60540;-73
2023/05/07 07:31:11;;;;;;;8.20;7.30;;;;;;;11.82;75.67;101393.90;107160;1257;71395;-73
2023/05/07 07:33:39;;;;;;;7.50;6.80;;;;;;;11.93;75.04;101390.94;107342;1258;220675;-73
2023/05/07 07:36:07;;;;;;;7.30;6.60;;;;;;;12.03;74.53;101384.89;107044;1262;73147;-73
2023/05/07 07:38:34;;;;;;;7.50;6.70;;;;;;;12.14;74.15;101388.10;107418;1259;60683;-74
2023/05/07 07:41:01;;;;;;;7.70;6.50;;;;;;;12.25;74.22;101387.48;107281;1258;60575;-71
2023/05/07 07:43:28;;;;;;;7.50;6.50;;;;;;;12.32;73.63;101389.17;107144;1257;72315;-74
2023/05/07 07:45:55;;;;;;;7.80;6.20;;;;;;;12.41;73.04;101388.76;107572;1258;69670;-72
2023/05/07 07:48:22;;;;;;;7.60;6.80;;;;;;;12.50;73.18;101390.23;107445;1257;75250;-74
2023/05/07 07:50:50;;;;;;;7.40;6.30;;;;;;;12.56;72.87;101397.13;107716;1261;60372;-72
2023/05/07 07:53:17;;;;;;;8.30;6.70;;;;;;;12.66;72.86;101400.20;107342;1264;59385;-72
2023/05/07 07:55:44;;;;;;;6.90;6.10;;;;;;;12.69;72.09;101398.02;107275;1257;74895;-73
2023/05/07 07:58:11;;;;;;;7.20;6.10;;;;;;;12.72;71.92;101394.85;107402;1262;71277;-73
2023/05/07 08:00:37;;;;;;;6.80;5.80;;;;;;;12.88;72.17;101398.26;108413;1262;71176;-74
2023/05/07 08:03:04;;;;;;;6.80;5.90;;;;;;;13.05;72.38;101391.14;108140;1263;60458;-73
2023/05/07 08:05:31;;;;;;;6.30;5.70;;;;;;;13.13;70.95;101395.73;106839;1259;60664;-73
2023/05/07 08:07:59;;;;;;;6.90;6.00;;;;;;;13.13;70.53;101398.77;107389;1257;74898;-75
2023/05/07 08:10:26;;;;;;;6.80;6.00;;;;;;;13.15;70.65;101398.92;107276;1258;70573;-73
2023/05/07 08:12:53;;;;;;;7.40;6.30;;;;;;;13.23;70.79;101397.95;107233;1257;71487;-74
2023/05/07 08:15:20;;;;;;;7.60;6.00;;;;;;;13.38;70.62;101400.23;107261;1258;60771;-74
2023/05/07 08:17:47;;;;;;;6.50;5.60;;;;;;;13.49;70.20;101403.23;107518;1257;60522;-74
2023/05/07 08:20:14;;;;;;;6.80;5.80;;;;;;;13.60;69.79;101402.98;107776;1258;73844;-74
2023/05/07 08:22:41;;;;;;;6.50;5.60;;;;;;;13.69;69.24;101406.38;107204;1262;70302;-74
2023/05/07 08:25:08;;;;;;;6.10;5.30;;;;;;;13.75;68.69;101402.17;106898;1257;73461;-74
2023/05/07 08:27:35;;;;;;;7.50;5.10;;;;;;;13.75;68.13;101396.91;107607;1257;60977;-74
2023/05/07 08:30:02;;;;;;;7.50;5.80;;;;;;;13.72;68.16;101401.42;108166;1257;62820;-74
2023/05/07 08:32:29;;;;;;;6.30;4.80;;;;;;;13.75;68.54;101407.47;107702;1257;72324;-74
2023/05/07 08:34:56;;;;;;;6.70;5.40;;;;;;;13.75;68.11;101409.40;107139;1257;70907;-73
2023/05/07 08:37:23;;;;;;;6.30;5.30;;;;;;;13.71;68.16;101411.00;107567;1257;71597;-74
2023/05/07 08:39:50;;;;;;;6.20;5.50;;;;;;;13.68;68.18;101410.69;107885;1257;61691;-74
2023/05/07 08:42:17;;;;;;;7.00;5.60;;;;;;;13.69;68.40;101414.63;107508;1257;59308;-74
2023/05/07 08:44:48;;;;;;;6.40;5.60;;;;;;;13.75;68.19;101407.70;107465;1261;73584;-73
2023/05/07 08:47:17;;;;;;;8.00;5.80;;;;;;;13.83;67.87;101409.21;107171;1257;70905;-74
2023/05/07 08:49:43;;;;;;;6.70;5.60;;;;;;;13.88;67.35;101403.67;108070;1257;71479;-73
2023/05/07 08:52:12;;;;;;;6.90;5.90;;;;;;;13.94;67.05;101411.02;107709;1257;60759;-73
2023/05/07 08:54:39;;;;;;;7.40;5.90;;;;;;;13.89;67.00;101412.09;107165;1257;59765;-74
2023/05/07 08:57:06;;;;;;;6.80;6.10;;;;;;;13.95;67.01;101416.58;107480;1262;72561;-73
2023/05/07 08:59:33;;;;;;;6.70;5.80;;;;;;;14.00;67.08;101421.91;107125;1258;71265;-73
2023/05/07 09:01:59;;;;;;;6.90;5.90;;;;;;;13.99;67.22;101419.29;107621;1258;72422;-74
2023/05/07 09:04:27;;;;;;;7.00;6.20;;;;;;;14.01;67.39;101421.77;107229;1257;60563;-74
2023/05/07 09:06:55;;;;;;;7.90;6.00;;;;;;;13.98;67.34;101422.84;107690;1257;60331;-73
2023/05/07 09:09:22;;;;;;;7.60;5.70;;;;;;;14.04;67.54;101422.45;107458;1257;72652;-73
2023/05/07 09:11:56;;;;;;;8.20;5.80;;;;;;;14.04;67.87;101420.30;107519;1261;71125;-74
2023/05/07 09:14:24;;;;;;;7.50;5.90;;;;;;;14.01;67.11;101421.16;107237;1257;71248;-72
2023/05/07 09:16:53;;;;;;;7.00;5.90;;;;;;;14.04;67.22;101422.61;107616;1257;60931;-73
2023/05/07 09:19:24;;;;;;;6.40;5.70;;;;;;;14.10;66.90;101417.99;107229;1260;60343;-74
2023/05/07 09:21:58;;;;;;;6.70;5.80;;;;;;;14.12;66.32;101417.60;107474;1257;73263;-73
2023/05/07 09:24:26;;;;;;;7.60;5.90;;;;;;;14.14;66.45;101416.69;107308;1257;69878;-74
2023/05/07 09:26:53;;;;;;;7.10;6.10;;;;;;;14.20;66.30;101419.86;107351;1257;71466;-74
2023/05/07 09:29:19;;;;;;;6.80;6.00;;;;;;;14.27;66.13;101423.64;106971;1257;61846;-73
2023/05/07 09:31:46;;;;;;;7.50;6.20;;;;;;;14.35;66.07;101419.60;107365;1257;59298;-73
2023/05/07 09:34:13;;;;;;;7.50;6.40;;;;;;;14.49;66.31;101420.15;107000;1257;73819;-73
2023/05/07 09:36:40;;;;;;;6.60;5.80;;;;;;;14.60;65.93;101419.83;107432;1257;70225;-74
2023/05/07 09:39:08;;;;;;;6.90;5.70;;;;;;;14.62;65.03;101420.48;107322;1257;71705;-74
2023/05/07 09:41:44;;;;;;;7.00;5.80;;;;;;;14.59;64.57;101420.36;107492;1257;60630;-72
2023/05/07 09:44:11;;;;;;;6.80;6.00;;;;;;;14.60;65.26;101420.10;107761;1258;60340;-72
2023/05/07 09:46:39;;;;;;;6.70;6.00;;;;;;;14.60;64.89;101424.20;107245;1257;73896;-72
2023/05/07 09:49:09;;;;;;;7.30;5.60;;;;;;;14.60;65.21;101421.00;107317;1257;71238;-73
2023/05/07 09:51:45;;;;;;;7.50;6.50;;;;;;;14.56;64.82;101420.13;108275;1257;72408;-73
2023/05/07 09:54:12;;;;;;;7.40;6.50;;;;;;;14.65;64.79;101414.58;108769;1257;62176;-73
2023/05/07 09:56:41;;;;;;;7.50;6.30;;;;;;;14.72;64.86;101411.61;108897;1256;60011;-74
2023/05/07 09:59:10;;;;;;;6.90;6.10;;;;;;;14.80;64.50;101414.61;108419;1257;73016;-73
2023/05/07 10:01:38;;;;;;;7.40;6.00;;;;;;;14.88;64.21;101410.61;108155;1257;70043;-72
2023/05/07 10:04:05;;;;;;;7.50;6.40;;;;;;;14.89;63.98;101412.42;107182;1257;71547;-72
2023/05/07 10:06:32;;;;;;;7.40;6.40;;;;;;;14.89;63.88;101414.52;107590;1257;61083;-73
2023/05/07 10:09:00;;;;;;;6.60;6.00;;;;;;;14.89;63.72;101417.96;107510;1257;60306;-72
2023/05/07 10:11:27;;;;;;;7.80;6.30;;;;;;;14.83;63.25;101420.44;107797;1257;74570;-73
2023/05/07 10:13:54;;;;;;;7.20;6.30;;;;;;;14.88;63.50;101415.04;107784;1257;70345;-73
2023/05/07 10:16:22;;;;;;;7.10;5.90;;;;;;;14.92;63.78;101417.19;107399;1257;70853;-73
2023/05/07 10:18:50;;;;;;;7.10;5.60;;;;;;;14.90;63.15;101418.02;107250;1258;60480;-72
2023/05/07 10:21:19;;;;;;;6.00;5.40;;;;;;;14.86;63.26;101420.05;106920;1257;60384;-73
2023/05/07 10:24:13;;;;;;;6.70;5.40;;;;;;;14.92;63.65;101421.76;107549;1256;73736;-73
2023/05/07 10:26:48;;;;;;;7.00;5.90;;;;;;;15.02;63.21;101424.80;107899;1257;69676;-72
2023/05/07 10:29:27;;;;;;;6.50;5.40;;;;;;;15.05;63.04;101426.64;107984;1257;71928;-72
2023/05/07 10:32:23;;;;;;;5.80;5.20;;;;;;;15.08;62.87;101428.38;107553;1257;62684;-73
2023/05/07 10:34:53;;;;;;;5.70;4.90;;;;;;;15.17;62.41;101428.56;107301;1257;60541;-73
2023/05/07 10:37:20;;;;;;;6.00;5.40;;;;;;;15.30;62.26;101430.98;106882;1257;73795;-73
2023/05/07 10:39:47;;;;;;;5.20;4.70;;;;;;;15.31;61.70;101429.35;106568;1257;69737;-73
2023/05/07 10:42:14;;;;;;;5.10;4.60;;;;;;;15.36;61.51;101431.90;106980;1258;70175;-73
2023/05/07 10:44:41;;;;;;;6.00;4.50;;;;;;;15.44;61.40;101430.10;107624;1257;60361;-72
2023/05/07 10:47:10;;;;;;;4.80;4.30;;;;;;;15.53;61.29;101433.33;107497;1257;59158;-72
2023/05/07 10:49:43;;;;;;;5.10;4.60;;;;;;;15.63;61.39;101438.45;106929;1258;72761;-73
2023/05/07 10:52:21;;;;;;;5.30;4.80;;;;;;;15.69;60.71;101441.67;107305;1257;69550;-73
2023/05/07 10:55:17;;;;;;;5.30;4.80;;;;;;;15.70;60.31;101442.95;106746;1260;71638;-73
2023/05/07 10:57:44;;;;;;;5.20;4.50;;;;;;;15.83;60.46;101442.80;107386;1257;60478;-74
2023/05/07 11:00:23;;;;;;;5.10;4.60;;;;;;;15.80;60.40;101445.98;106885;1260;59183;-74
2023/05/07 11:03:06;;;;;;;5.00;4.50;;;;;;;15.77;60.40;101444.92;107502;1257;73817;-74
2023/05/07 11:05:34;;;;;;;6.30;5.00;;;;;;;15.70;60.35;101447.73;107727;1257;68797;-73
2023/05/07 11:08:04;;;;;;;4.90;4.40;;;;;;;15.80;60.75;101445.06;107386;1257;72905;-72
2023/05/07 11:10:52;;;;;;;5.60;5.00;;;;;;;15.94;59.91;101441.27;107002;1256;59520;-73
2023/05/07 11:13:45;;;;;;;5.10;4.60;;;;;;;16.20;59.54;101439.34;106792;1257;60313;-73
2023/05/07 11:16:26;;;;;;;5.20;4.50;;;;;;;16.43;59.24;101439.91;107109;1257;73946;-73
2023/05/07 11:18:55;;;;;;;4.80;4.30;;;;;;;16.57;58.50;101445.95;107196;1257;70742;-72
2023/05/07 11:21:36;;;;;;;4.80;4.00;;;;;;;16.63;57.86;101445.02;107559;1257;71537;-72
2023/05/07 11:24:04;;;;;;;5.00;4.50;;;;;;;16.60;57.75;101448.21;107231;1258;59802;-73